Latest Weather Observations for Maningrida Airport

IDD60801

Issued at 10:31 am CST Tuesday 30 August 2016 (issued every 30 minutes, with the page automatically refreshed every 10 minutes)

About weather observations | Map of weather stations | Latest weather observations for NT | Other Formats
Station Details ID: 014405 Name: MANINGRIDA AIRPORT Lat: -12.06 Lon: 134.23 Height: 28.1 m
Data from the previous 72 hours. | See also: Recent months at Maningrida Airport
Date/Time
CST
Temp
°C
App
Temp
°C
Dew
Point
°C
Rel
Hum
%
Delta-T
°C
Wind Press
QNH
hPa
Press
MSL
hPa
Rain since
9am
mm
Dir  Spd
km/h
Gust
km/h
Spd
kts
Gust
kts
30/10:30am 29.5 29.9 20.6 58 5.9 ENE 19 22 10 12 1016.6 1016.6 -
30/10:00am 29.1 29.6 20.0 58 6.0 ENE 17 24 9 13 1017.0 1016.8 0.0
30/09:30am 27.9 29.5 20.7 65 4.8 ENE 13 17 7 9 1017.0 1016.8 0.0
30/09:00am 27.0 29.3 21.3 71 3.8 ESE 11 17 6 9 1016.9 1016.7 0.0
30/08:30am 25.9 27.9 21.6 77 2.9 ESE 13 19 7 10 1016.7 1016.5 0.0
30/08:00am 24.8 26.6 21.1 80 2.4 SE 13 19 7 10 1016.3 1016.1 0.0
30/07:30am 23.4 25.7 21.3 88 1.4 SSE 11 15 6 8 1016.0 1015.8 0.0
30/07:00am 22.5 24.8 21.3 93 0.8 SE 11 13 6 7 1015.6 1015.4 0.0
30/06:30am 22.6 24.8 21.2 92 0.9 SSE 11 13 6 7 1015.1 1014.9 0.0
30/06:00am 22.7 25.1 21.5 93 0.8 ESE 11 13 6 7 1014.9 1014.7 0.0
30/05:30am 22.4 25.1 21.4 94 0.7 SE 9 11 5 6 1014.4 1014.2 0.0
30/05:00am 22.5 25.6 21.1 92 0.9 SSE 6 7 3 4 1014.0 1013.8 0.0
30/04:30am 23.1 26.5 21.7 92 0.9 ESE 6 7 3 4 1013.7 1013.5 0.0
30/04:00am 23.4 26.7 21.8 91 1.1 ESE 7 9 4 5 1013.7 1013.5 0.0
30/03:30am 23.5 26.8 21.8 90 1.1 SE 7 9 4 5 1013.7 1013.5 0.0
30/03:00am 23.8 27.3 22.1 90 1.1 SE 7 9 4 5 1013.7 1013.5 0.0
30/02:30am 23.8 27.1 21.9 89 1.3 ESE 7 11 4 6 1013.8 1013.6 0.0
30/02:00am 24.0 27.2 21.7 87 1.5 SSE 7 9 4 5 1014.0 1013.8 0.0
30/01:30am 24.7 28.0 21.8 84 1.9 SE 7 11 4 6 1014.1 1013.9 0.0
30/01:00am 25.3 28.2 21.8 81 2.3 E 9 13 5 7 1014.2 1014.0 0.0
30/12:30am 25.5 28.0 21.8 80 2.5 E 11 17 6 9 1014.2 1014.0 0.0
30/12:00am 25.6 27.9 22.1 81 2.3 E 13 20 7 11 1014.2 1014.0 0.0
 
Date/Time
CST
Temp
°C
App
Temp
°C
Dew
Point
°C
Rel
Hum
%
Delta-T
°C
Wind Press
QNH
hPa
Press
MSL
hPa
Rain since
9am
mm
Dir  Spd
km/h
Gust
km/h
Spd
kts
Gust
kts
29/11:30pm 25.7 27.7 22.2 81 2.3 ENE 15 24 8 13 1014.0 1013.8 0.0
29/11:00pm 25.6 28.1 22.5 83 2.1 ENE 13 20 7 11 1013.7 1013.5 0.0
29/10:30pm 25.8 27.6 22.5 82 2.2 ENE 17 24 9 13 1013.6 1013.4 0.0
29/10:00pm 25.9 28.6 22.8 83 2.1 ENE 13 20 7 11 1013.5 1013.3 0.0
29/09:30pm 25.9 28.6 22.8 83 2.1 ENE 13 20 7 11 1013.5 1013.3 0.0
29/09:00pm 25.9 28.1 22.6 82 2.2 ENE 15 20 8 11 1013.3 1013.1 0.0
29/08:30pm 25.9 29.0 22.8 83 2.1 ENE 11 19 6 10 1013.0 1012.8 0.0
29/08:00pm 26.0 28.7 22.9 83 2.1 ENE 13 20 7 11 1012.8 1012.6 0.0
29/07:30pm 26.0 29.1 22.9 83 2.1 ENE 11 17 6 9 1012.6 1012.4 0.0
29/07:19pm 26.1 28.8 22.8 82 2.2 ENE 13 19 7 10 1012.4 1012.2 0.0
29/07:00pm 26.2 28.3 22.5 80 2.5 ENE 15 22 8 12 1012.2 1012.0 0.0
29/06:47pm 26.3 28.8 22.4 79 2.6 ENE 13 19 7 10 1012.2 1012.0 0.0
29/06:30pm 26.3 28.4 22.4 79 2.6 ENE 15 24 8 13 1011.9 1011.7 0.0
29/06:00pm 27.0 28.1 22.0 74 3.4 ENE 19 28 10 15 1011.8 1011.6 0.0
29/05:30pm 27.7 28.3 21.3 68 4.3 ENE 20 28 11 15 1011.7 1011.5 0.0
29/05:00pm 28.9 29.3 20.6 61 5.5 NE 19 28 10 15 1011.8 1011.6 0.0
29/04:30pm 29.4 29.3 20.0 57 6.2 NE 20 30 11 16 1011.6 1011.4 0.0
29/04:00pm 29.2 29.3 20.4 59 5.8 ENE 20 30 11 16 1011.5 1011.3 0.0
29/03:30pm 29.7 30.0 20.5 57 6.1 ENE 19 30 10 16 1011.4 1011.2 0.0
29/03:00pm 30.1 30.2 20.4 56 6.4 NE 20 32 11 17 1011.8 1011.6 0.0
29/02:30pm 30.4 30.1 20.3 54 6.7 NE 22 32 12 17 1012.2 1012.0 0.0
29/02:00pm 30.2 29.8 20.2 55 6.6 NE 22 33 12 18 1012.6 1012.4 0.0
29/01:30pm 30.3 29.8 20.0 54 6.8 NE 22 35 12 19 1012.9 1012.7 0.0
29/01:00pm 29.9 29.5 20.2 56 6.4 ENE 22 30 12 16 1013.3 1013.1 0.0
29/12:30pm 30.2 29.9 19.6 53 6.9 ENE 20 30 11 16 1013.8 1013.6 0.0
29/12:00pm 30.4 30.2 19.7 52 7.0 E 20 32 11 17 1014.2 1014.0 0.0
29/11:30am 30.5 30.7 20.1 53 6.9 E 19 28 10 15 1014.6 1014.4 0.0
29/11:00am 29.6 29.7 19.9 56 6.4 ENE 19 30 10 16 1015.1 1014.9 0.0
29/10:30am 29.2 30.0 19.8 57 6.2 ENE 15 22 8 12 1015.4 1015.2 0.0
29/10:00am 29.2 29.9 20.4 59 5.8 ESE 17 26 9 14 1015.5 1015.3 0.0
29/09:30am 27.3 28.4 19.6 62 5.0 SE 13 19 7 10 1015.6 1015.4 0.0
29/09:00am 25.8 26.4 18.7 65 4.5 SE 13 19 7 10 1015.7 1015.5 0.0
29/08:30am 25.3 25.5 18.5 66 4.3 SE 15 19 8 10 1015.4 1015.2 0.0
29/08:00am 23.2 23.5 17.0 68 3.8 S 11 13 6 7 1015.1 1014.9 0.0
29/07:30am 21.8 21.9 16.5 72 3.2 S 11 15 6 8 1014.8 1014.6 0.0
29/07:00am 20.4 20.8 16.2 77 2.5 S 9 13 5 7 1014.5 1014.3 0.0
29/06:30am 20.4 20.6 15.8 75 2.7 S 9 11 5 6 1014.0 1013.8 0.0
29/06:00am 20.5 21.1 15.7 74 2.9 S 7 11 4 6 1013.8 1013.6 0.0
29/05:30am 20.4 20.5 15.6 74 2.9 S 9 11 5 6 1013.4 1013.2 0.0
29/05:00am 20.9 21.1 15.7 72 3.1 S 9 13 5 7 1013.0 1012.8 0.0
29/04:30am 21.1 21.4 15.9 72 3.1 SSE 9 13 5 7 1012.7 1012.5 0.0
29/04:00am 21.4 21.3 16.1 72 3.2 SSE 11 13 6 7 1012.7 1012.5 0.0
29/03:30am 21.4 21.9 16.6 74 2.9 SSE 9 13 5 7 1012.7 1012.5 0.0
29/03:00am 21.3 22.2 17.5 79 2.3 SSE 9 13 5 7 1012.8 1012.6 0.0
29/02:30am 21.6 23.1 18.0 80 2.2 S 7 11 4 6 1012.9 1012.7 0.0
29/02:00am 22.1 23.3 18.3 79 2.4 SSE 9 15 5 8 1013.0 1012.8 0.0
29/01:30am 22.0 23.5 18.8 82 2.0 SSE 9 13 5 7 1013.0 1012.8 0.0
29/01:00am 21.8 23.2 18.6 82 2.0 SSE 9 13 5 7 1013.1 1012.9 0.0
29/12:30am 22.3 23.9 19.1 82 2.0 SSE 9 13 5 7 1013.4 1013.2 0.0
29/12:00am 21.9 23.3 17.9 78 2.5 SE 7 9 4 5 1013.3 1013.1 0.0
 
Date/Time
CST
Temp
°C
App
Temp
°C
Dew
Point
°C
Rel
Hum
%
Delta-T
°C
Wind Press
QNH
hPa
Press
MSL
hPa
Rain since
9am
mm
Dir  Spd
km/h
Gust
km/h
Spd
kts
Gust
kts
28/11:30pm 23.7 25.9 19.6 78 2.6 ENE 7 11 4 6 1013.2 1013.0 0.0
28/11:00pm 23.6 25.6 18.7 74 3.1 ENE 6 7 3 4 1013.0 1012.8 0.0
28/10:30pm 23.7 25.8 19.0 75 3.0 NE 6 9 3 5 1013.1 1012.9 0.0
28/10:00pm 24.0 25.7 18.6 72 3.4 NE 7 9 4 5 1013.0 1012.8 0.0
28/09:30pm 24.2 25.6 17.7 67 4.1 NE 7 11 4 6 1013.0 1012.8 0.0
28/09:00pm 24.6 25.5 17.6 65 4.4 ENE 9 13 5 7 1012.8 1012.6 0.0
28/08:30pm 24.4 25.7 17.6 66 4.2 ENE 7 11 4 6 1012.5 1012.3 0.0
28/08:00pm 24.5 26.0 17.7 66 4.3 NE 6 7 3 4 1012.3 1012.1 0.0
28/07:30pm 25.0 26.6 18.2 66 4.3 ENE 7 9 4 5 1012.0 1011.8 0.0
28/07:00pm 25.4 26.4 17.8 62 4.8 ENE 9 13 5 7 1011.7 1011.5 0.0
28/06:30pm 26.0 26.2 17.6 60 5.3 ENE 13 19 7 10 1011.7 1011.5 0.0
28/06:00pm 27.0 26.6 16.3 52 6.6 ENE 13 20 7 11 1011.3 1011.1 0.0
28/05:30pm 27.7 26.5 16.0 49 7.2 ENE 17 22 9 12 1011.1 1011.0 0.0
28/05:00pm 28.9 27.3 15.1 43 8.4 ENE 17 24 9 13 1011.0 1010.9 0.0
28/04:30pm 30.4 28.6 13.2 35 10.3 NE 15 19 8 10 1010.9 1010.8 0.0
28/04:00pm 30.2 28.3 15.1 40 9.3 NE 19 26 10 14 1010.8 1010.7 0.0
28/03:30pm 30.5 28.1 13.7 35 10.1 NE 19 24 10 13 1010.9 1010.8 0.0
28/03:00pm 30.4 28.4 14.9 39 9.5 NNE 19 24 10 13 1011.1 1011.0 0.0
28/02:30pm 31.4 29.3 13.6 33 10.7 NE 17 22 9 12 1011.4 1011.2 0.0
28/02:00pm 30.7 28.1 13.9 36 10.1 N 20 24 11 13 1011.9 1011.7 0.0
28/01:30pm 31.7 28.3 9.3 25 12.6 NNE 17 22 9 12 1012.7 1012.5 0.0
28/01:00pm 31.6 27.7 8.6 24 12.8 N 19 22 10 12 1013.5 1013.3 0.0
28/12:30pm 32.3 29.6 5.7 19 14.2 SSE 9 19 5 10 1014.0 1013.8 0.0
28/12:00pm 31.1 28.0 5.5 20 13.5 SE 11 19 6 10 1014.6 1014.4 0.0
28/11:30am 30.2 26.0 5.5 21 13.0 SE 17 22 9 12 1015.3 1015.1 0.0
28/11:00am 29.5 25.4 6.2 23 12.3 ESE 17 24 9 13 1015.9 1015.7 0.0
28/10:30am 28.1 23.5 5.6 24 11.7 SE 19 26 10 14 1016.5 1016.3 0.0
28/10:00am 27.0 22.1 5.3 25 11.2 SE 20 28 11 15 1016.7 1016.5 0.0
28/09:30am 25.4 22.1 8.0 33 9.3 ESE 15 20 8 11 1017.0 1016.8 0.0
28/09:00am 24.2 20.3 8.6 37 8.4 ESE 19 26 10 14 1016.9 1016.7 0.0
28/08:30am 22.7 21.0 11.1 48 6.4 SSE 11 17 6 9 1016.6 1016.4 0.0
28/08:00am 20.0 19.1 12.7 63 4.1 S 9 13 5 7 1016.5 1016.3 0.0
28/07:30am 18.4 17.8 13.5 73 2.8 S 9 11 5 6 1016.2 1016.0 0.0
28/07:00am 15.1 14.7 13.1 88 1.1 S 7 9 4 5 1016.0 1015.8 0.0
28/06:30am 15.1 14.8 13.3 89 1.0 SSE 7 9 4 5 1015.7 1015.5 0.0
28/06:00am 15.3 16.2 13.0 86 1.3 CALM 0 0 0 0 1015.4 1015.2 0.0
28/05:30am 16.1 17.0 13.0 82 1.7 CALM 0 0 0 0 1015.3 1015.1 0.0
28/05:00am 16.9 16.5 13.0 78 2.2 S 7 9 4 5 1015.1 1014.9 0.0
28/04:30am 17.3 17.0 13.4 78 2.2 SSE 7 9 4 5 1014.9 1014.7 0.0
28/04:00am 17.6 17.5 13.3 76 2.4 S 6 7 3 4 1015.0 1014.8 0.0
28/03:30am 18.1 17.5 13.4 74 2.7 S 9 13 5 7 1014.9 1014.7 0.0
28/03:00am 18.9 18.4 13.7 72 3.0 SSE 9 13 5 7 1015.0 1014.8 0.0
28/02:30am 19.0 18.8 13.6 71 3.1 SSE 7 9 4 5 1015.1 1014.9 0.0
28/02:00am 19.7 19.6 13.4 67 3.6 SE 6 9 3 5 1015.3 1015.1 0.0
28/01:30am 20.2 19.5 13.2 64 4.0 SSE 9 11 5 6 1015.4 1015.2 0.0
28/01:00am 21.2 20.5 13.1 60 4.6 ESE 9 15 5 8 1015.8 1015.6 0.0
28/12:30am 21.9 20.4 13.0 57 5.1 SE 13 19 7 10 1015.8 1015.6 0.0
28/12:00am 22.3 19.9 12.8 55 5.4 SE 17 22 9 12 1015.8 1015.6 0.0
 
Date/Time
CST
Temp
°C
App
Temp
°C
Dew
Point
°C
Rel
Hum
%
Delta-T
°C
Wind Press
QNH
hPa
Press
MSL
hPa
Rain since
9am
mm
Dir  Spd
km/h
Gust
km/h
Spd
kts
Gust
kts
27/11:30pm 22.9 20.1 12.5 52 5.9 ESE 19 28 10 15 1015.7 1015.5 0.0
27/11:00pm 23.4 20.8 12.1 49 6.4 ESE 17 26 9 14 1015.5 1015.3 0.0
27/10:30pm 24.1 20.6 12.1 47 6.8 SE 22 33 12 18 1015.4 1015.2 0.0
27/10:00pm 24.7 21.8 13.0 48 6.8 ESE 20 28 11 15 1015.1 1014.9 0.0
27/09:30pm 25.3 23.5 15.9 56 5.7 ESE 20 32 11 17 1014.8 1014.6 0.0
27/09:00pm 25.7 26.1 18.1 63 4.8 E 13 20 7 11 1014.3 1014.1 0.0
27/08:30pm 26.0 26.0 18.2 62 4.9 ENE 15 20 8 11 1013.8 1013.6 0.0
27/08:00pm 25.9 26.5 18.6 64 4.7 ENE 13 20 7 11 1013.5 1013.3 0.0
27/07:30pm 25.9 26.6 18.8 65 4.5 ENE 13 17 7 9 1013.1 1012.9 0.0
27/07:00pm 26.0 26.6 18.7 64 4.7 ENE 13 19 7 10 1012.8 1012.6 0.0
27/06:30pm 26.3 26.4 18.4 61 5.0 ENE 15 22 8 12 1012.5 1012.3 0.0
27/06:00pm 26.8 26.6 18.4 60 5.4 NE 17 28 9 15 1012.3 1012.1 0.0
27/05:30pm 28.1 27.3 17.0 51 7.0 NE 17 24 9 13 1012.1 1011.9 0.0
27/05:00pm 28.5 26.9 16.1 47 7.7 NNE 19 28 10 15 1012.0 1011.8 0.0
27/04:30pm 29.7 28.0 14.7 40 9.1 NNE 17 22 9 12 1011.6 1011.4 0.0
27/04:00pm 30.3 28.8 16.3 42 8.7 N 19 26 10 14 1011.5 1011.3 0.0
27/03:30pm 31.3 29.5 16.1 40 9.5 N 20 28 11 15 1011.5 1011.3 0.0
27/03:00pm 33.3 30.9 8.7 22 13.9 ESE 11 19 6 10 1011.7 1011.5 0.0
27/02:30pm 33.3 30.7 9.4 23 13.6 SSE 13 24 7 13 1012.1 1011.9 0.0
27/02:00pm 32.5 29.5 9.3 24 13.1 ESE 15 24 8 13 1012.7 1012.5 0.0
27/01:30pm 31.7 28.7 9.3 25 12.6 S 15 24 8 13 1013.4 1013.2 0.0
27/01:00pm 31.9 28.6 9.4 25 12.7 SE 17 28 9 15 1014.0 1013.8 0.0
27/12:30pm 30.1 26.4 10.1 29 11.3 SSE 20 30 11 16 1014.8 1014.6 0.0
27/12:00pm 30.2 27.2 10.7 30 11.2 SE 17 30 9 16 1015.3 1015.1 0.0
27/11:30am 29.5 26.3 10.1 30 11.0 SE 17 26 9 14 1016.0 1015.8 0.0
27/11:00am 28.0 24.4 10.7 34 9.8 SE 20 32 11 17 1016.6 1016.4 0.0

Other Formats:

Comma delimited format used in spreadsheet applications
http://www.bom.gov.au/fwo/IDD60801/IDD60801.95142.axf

JavaScript Object Notation format (JSON) in row-major order
http://www.bom.gov.au/fwo/IDD60801/IDD60801.95142.json